Latest Coastal Weather Observations for Moorabbin Airport

IDV60701

Issued at 6:21 pm EST Sunday 28 May 2017 (issued every 10 minutes, with the page automatically refreshed every 10 minutes)

About coastal observations | Map of coastal stations | Coastal observations for VIC | Marine services | Other Formats
Station Details ID: 086077 Name: MOORABBIN AIRPORT Lat: -37.98 Lon: 145.10 Height: 12.1 m
Data from the previous 72 hours. | See also: Recent months at Moorabbin Airport
Date/Time
EST
Temp
°C
Wind Pressure Rain since
9am
mm
Weather Cloud Vis
km
Sea
Height
m
Swell
Dir  Spd
kts
Gust
kts
hPa Trend Height
m
Period
s
Dir
28/06:00pm 9.8 WNW 10 17 1009.9 - 0.4 - Cloudy 10 - - - -
28/05:30pm 9.9 WNW 11 16 1009.6 - 0.4 - Partly cloudy 10 - - - -
28/05:00pm 10.5 W 12 19 1009.1 - 0.4 - Partly cloudy 10 - - - -
28/04:30pm 10.3 W 13 22 1008.6 - 0.4 - Partly cloudy 10 - - - -
28/04:22pm 10.2 W 15 25 1008.5 - 0.4 - Partly cloudy 10 - - - -
28/04:00pm 11.1 WNW 13 17 1007.9 - 0.4 - Partly cloudy 10 - - - -
28/03:30pm 11.4 WNW 13 22 1007.8 - 0.4 - Partly cloudy 10 - - - -
28/03:00pm 10.5 WNW 11 18 1007.5 - 0.4 - Partly cloudy 10 - - - -
28/02:30pm 11.0 W 11 19 1007.5 - 0.4 - Partly cloudy 10 - - - -
28/02:00pm 11.1 W 10 14 1007.1 - 0.4 - Partly cloudy 10 - - - -
28/01:30pm 12.2 W 9 21 1007.0 - 0.0 - Partly cloudy 10 - - - -
28/01:00pm 12.8 WSW 14 21 1007.0 - 0.0 - Partly cloudy 10 - - - -
28/12:30pm 13.6 WNW 11 17 1007.1 - 0.0 - Partly cloudy 10 - - - -
28/12:00pm 13.6 WNW 12 21 1007.6 - 0.0 - Cloudy 10 - - - -
28/11:30am 12.9 NW 11 19 1007.9 - 0.0 - Partly cloudy 10 - - - -
28/11:00am 11.9 NW 13 20 1008.0 - 0.0 - Partly cloudy 10 - - - -
28/10:30am 11.9 NW 14 20 1007.8 - 0.0 - Partly cloudy 10 - - - -
28/10:00am 12.1 NW 11 18 1007.7 - 0.0 - Partly cloudy 10 - - - -
28/09:30am 12.2 NW 13 19 1007.6 - 0.0 - Partly cloudy 10 - - - -
28/09:00am 11.7 NW 9 15 1007.6 - 8.6 - - 10 - - - -
28/08:30am 11.1 NW 7 13 1007.7 - 8.6 - Partly cloudy 10 - - - -
28/08:00am 10.7 NW 7 11 1007.5 - 8.6 - Partly cloudy 10 - - - -
28/07:30am 10.6 NW 7 10 1007.1 - 8.6 - Partly cloudy 10 - - - -
28/07:00am 10.5 NW 6 8 1007.1 - 8.4 - Partly cloudy 10 - - - -
28/06:30am 10.5 NNW 6 8 1006.9 - 8.4 - Partly cloudy 10 - - - -
28/06:00am 10.8 NW 7 13 1006.9 - 8.0 Rain Cloudy 10 - - - -
28/05:50am 10.8 WNW 6 10 1006.9 - 7.8 - Partly cloudy 10 - - - -
28/05:32am 11.0 NNW 6 8 1006.8 - 7.4 - Partly cloudy 5 - - - -
28/05:30am 11.0 NNW 5 7 1006.8 - 7.4 - Partly cloudy 7 - - - -
28/05:00am 11.4 NNW 8 11 1006.5 - 7.2 - Partly cloudy 10 - - - -
28/04:30am 11.1 NNW 9 13 1006.5 - 7.2 - Partly cloudy 10 - - - -
28/04:00am 10.6 NNW 8 10 1006.7 - 7.2 - Partly cloudy 10 - - - -
28/03:30am 10.5 N 9 11 1006.6 - 7.2 - Partly cloudy 10 - - - -
28/03:00am 10.0 N 10 12 1006.6 - 7.2 Recent precip. Cloudy 10 - - - -
28/02:30am 10.1 N 10 12 1007.3 - 7.0 - Partly cloudy 10 - - - -
28/02:00am 10.2 NNW 11 15 1007.8 - 7.0 - Partly cloudy 10 - - - -
28/01:30am 10.4 WNW 15 23 1008.5 - 6.0 - Partly cloudy - - - - -
28/01:04am 10.8 WNW 18 35 1008.1 - 2.8 - Partly cloudy 5 - - - -
28/01:00am 11.3 WNW 19 35 1007.9 - 1.0 - Partly cloudy 10 - - - -
28/12:53am 13.4 NNW 18 28 1008.0 - 0.6 - Partly cloudy 10 - - - -
28/12:52am 13.8 N 18 28 1007.7 - 0.6 - Partly cloudy 10 - - - -
28/12:42am 13.9 N 17 31 1005.3 - 0.6 - Partly cloudy 10 - - - -
28/12:30am 14.5 N 17 24 1006.7 - 0.4 - Partly cloudy 10 - - - -
28/12:00am 14.4 N 17 26 1007.0 - 0.4 - Cloudy 10 - - - -
 
Date/Time
EST
Temp
°C
Wind Pressure Rain since
9am
mm
Weather Cloud Vis
km
Sea
Height
m
Swell
Dir  Spd
kts
Gust
kts
hPa Trend Height
m
Period
s
Dir
27/11:30pm 14.8 N 18 26 1007.4 - 0.4 - Partly cloudy 10 - - - -
27/11:00pm 15.4 N 19 25 1008.0 - 0.4 - Partly cloudy 10 - - - -
27/10:46pm 15.6 N 16 27 1008.3 - 0.2 - Partly cloudy 10 - - - -
27/10:30pm 15.1 N 15 21 1008.4 - 0.2 - Partly cloudy 10 - - - -
27/10:00pm 16.2 N 15 25 1008.9 - 0.0 - Partly cloudy 10 - - - -
27/09:56pm 16.3 N 15 25 1008.9 - 0.0 - Partly cloudy 10 - - - -
27/09:30pm 16.5 N 14 23 1009.2 - 0.0 - Partly cloudy 10 - - - -
27/09:00pm 16.0 N 15 21 1009.3 - 0.0 - Cloudy 10 - - - -
27/08:41pm 16.2 N 17 27 1009.3 - 0.0 - Partly cloudy 10 - - - -
27/08:30pm 16.5 N 18 25 1009.2 - 0.0 - Partly cloudy 10 - - - -
27/08:00pm 16.6 N 17 26 1009.3 - 0.0 - Partly cloudy 10 - - - -
27/07:30pm 16.5 N 17 24 1009.7 - 0.0 - - 10 - - - -
27/07:00pm 16.4 N 15 19 1010.3 - 0.0 - - 10 - - - -
27/06:30pm 16.6 N 18 23 1010.3 - 0.0 - Partly cloudy 10 - - - -
27/06:00pm 16.7 N 17 22 1010.5 - 0.0 - Cloudy 10 - - - -
27/05:30pm 16.7 N 18 24 1010.4 - 0.0 - - 10 - - - -
27/05:00pm 16.0 N 13 20 1010.8 - 0.0 - - 10 - - - -
27/04:30pm 16.6 N 12 16 1011.1 - 0.0 - - 10 - - - -
27/04:00pm 17.0 N 15 19 1011.3 - 0.0 - - 10 - - - -
27/03:30pm 17.1 N 17 23 1011.6 - 0.0 - - 10 - - - -
27/03:00pm 17.1 N 16 22 1011.7 - 0.0 - - 10 - - - -
27/02:39pm 17.1 N 18 29 1011.8 - 0.0 - Partly cloudy 10 - - - -
27/02:30pm 17.3 N 19 26 1011.9 - 0.0 - - 10 - - - -
27/02:00pm 17.4 N 18 24 1012.4 - 0.0 - - 10 - - - -
27/01:35pm 17.5 NNW 20 30 1012.7 - 0.0 - - 10 - - - -
27/01:30pm 17.5 NNW 20 28 1012.8 - 0.0 - - 10 - - - -
27/01:10pm 17.7 NNW 17 27 1013.3 - 0.0 - - 10 - - - -
27/01:00pm 17.3 N 21 29 1013.4 - 0.0 - - 10 - - - -
27/12:57pm 17.2 N 19 29 1013.4 - 0.0 - - 10 - - - -
27/12:30pm 17.1 N 19 25 1014.0 - 0.0 - - 10 - - - -
27/12:00pm 17.5 NNW 16 23 1014.7 - 0.0 - - 10 - - - -
27/11:30am 17.1 N 19 26 1015.3 - 0.0 - - 10 - - - -
27/11:05am 16.8 N 19 29 1015.8 - 0.0 - - 10 - - - -
27/11:00am 16.7 N 19 27 1015.9 - 0.0 - - 10 - - - -
27/10:32am 16.6 N 15 25 1016.4 - 0.0 - - 10 - - - -
27/10:30am 16.4 N 17 25 1016.5 - 0.0 - - 10 - - - -
27/10:00am 15.4 NNW 14 21 1016.7 - 0.0 - - 10 - - - -
27/09:30am 14.8 N 15 21 1016.9 - 0.0 - - 10 - - - -
27/09:00am 14.4 N 14 18 1017.2 - 0.0 - - 10 - - - -
27/08:30am 13.9 N 15 22 1017.2 - 0.0 - - 10 - - - -
27/08:00am 13.6 N 16 20 1017.1 - 0.0 - - 10 - - - -
27/07:30am 13.4 N 13 17 1017.1 - 0.0 - - 10 - - - -
27/07:00am 13.3 N 12 17 1017.2 - 0.0 - - 10 - - - -
27/06:30am 13.3 N 11 15 1017.2 - 0.0 - - 10 - - - -
27/06:00am 13.6 N 13 16 1017.0 - 0.0 - Partly cloudy 10 - - - -
27/05:30am 13.1 N 12 16 1017.0 - 0.0 - Partly cloudy 10 - - - -
27/05:00am 12.9 N 9 11 1017.3 - 0.0 - Cloudy 10 - - - -
27/04:30am 12.7 N 10 13 1017.4 - 0.0 - Partly cloudy 10 - - - -
27/04:00am 13.0 N 10 14 1017.5 - 0.0 - Partly cloudy 10 - - - -
27/03:30am 12.8 N 10 12 1017.7 - 0.0 - Partly cloudy 10 - - - -
27/03:00am 12.1 N 9 12 1018.0 - 0.0 - - 10 - - - -
27/02:30am 11.9 N 9 12 1018.2 - 0.0 - Partly cloudy 10 - - - -
27/02:00am 11.8 N 9 12 1018.4 - 0.0 - - 10 - - - -
27/01:30am 11.8 N 9 11 1018.6 - 0.0 - - - - - - -
27/01:00am 11.3 N 7 9 1018.8 - 0.0 - - 10 - - - -
27/12:30am 10.8 N 5 6 1019.1 - 0.0 - - 10 - - - -
27/12:00am 11.0 N 5 6 1019.2 - 0.0 - - 10 - - - -
 
Date/Time
EST
Temp
°C
Wind Pressure Rain since
9am
mm
Weather Cloud Vis
km
Sea
Height
m
Swell
Dir  Spd
kts
Gust
kts
hPa Trend Height
m
Period
s
Dir
26/11:30pm 11.0 NNW 6 7 1019.4 - 0.0 - - 10 - - - -
26/11:00pm 11.1 NNW 6 7 1019.5 - 0.0 - - - - - - -
26/10:30pm 8.9 NNW 4 5 1019.6 - 0.0 - - 10 - - - -
26/10:00pm 9.0 N 3 3 1019.7 - 0.0 - - 10 - - - -
26/09:30pm 9.5 N 3 4 1019.9 - 0.0 - - 10 - - - -
26/09:00pm 10.0 N 3 4 1019.9 - 0.0 - - 10 - - - -
26/08:30pm 10.2 N 3 4 1019.9 - 0.0 - Partly cloudy 10 - - - -
26/08:00pm 10.7 CALM 0 0 1019.8 - 0.0 - Partly cloudy 10 - - - -
26/07:30pm 11.2 CALM 0 3 1019.8 - 0.0 - Partly cloudy 10 - - - -
26/07:00pm 11.3 CALM 0 0 1019.8 - 0.0 - Partly cloudy 10 - - - -
26/06:30pm 12.3 W 2 3 1019.7 - 0.0 - Cloudy 10 - - - -
26/06:00pm 12.9 WNW 3 5 1019.6 - 0.0 - Mostly cloudy 10 - - - -
26/05:30pm 12.3 SSE 4 5 1019.5 - 0.0 - Partly cloudy 10 - - - -
26/05:00pm 12.9 S 4 5 1019.6 - 0.0 - - 10 - - - -
26/04:30pm 13.8 S 6 7 1019.6 - 0.0 - - 10 - - - -
26/04:00pm 14.4 S 7 9 1019.7 - 0.0 - - 10 - - - -
26/03:30pm 14.8 S 7 9 1019.7 - 0.0 - - 10 - - - -
26/03:00pm 15.2 S 7 8 1019.7 - 0.0 - - 10 - - - -
26/02:30pm 15.4 SSW 6 9 1020.1 - 0.0 - - 10 - - - -
26/02:00pm 15.2 S 5 8 1020.3 - 0.0 - - 10 - - - -
26/01:30pm 15.3 SW 5 7 1020.7 - 0.0 - - 10 - - - -
26/01:00pm 15.3 SSW 6 8 1021.0 - 0.0 - Partly cloudy 10 - - - -
26/12:30pm 14.8 SW 6 8 1021.5 - 0.0 - Partly cloudy 10 - - - -
26/12:00pm 15.4 W 4 6 1021.9 - 0.0 - Mostly clear 10 - - - -
26/11:30am 14.6 WNW 5 7 1022.5 - 0.0 - Partly cloudy 10 - - - -
26/11:00am 14.2 W 6 9 1022.8 - 0.0 - Cloudy 10 - - - -
26/10:30am 13.8 W 6 8 1022.9 - 0.0 - Cloudy 10 - - - -
26/10:00am 13.7 W 5 7 1022.8 - 0.0 - Partly cloudy 10 - - - -
26/09:30am 13.7 W 6 7 1022.8 - 0.0 - Cloudy 10 - - - -
26/09:00am 13.5 WNW 5 8 1022.7 - 2.6 - Cloudy 10 - - - -
26/08:30am 13.0 W 5 6 1022.5 - 2.6 - Cloudy 10 - - - -
26/08:00am 12.8 WNW 5 6 1022.4 - 2.6 - Cloudy 10 - - - -
26/07:30am 12.6 WNW 4 6 1022.0 - 2.6 - Partly cloudy 10 - - - -
26/07:00am 12.7 WSW 5 8 1021.5 - 2.6 - Partly cloudy 10 - - - -
26/06:30am 13.0 WNW 6 8 1021.4 - 2.6 - Partly cloudy 10 - - - -
26/06:00am 13.1 W 6 9 1021.1 - 2.6 - Cloudy 10 - - - -
26/05:36am 12.8 W 4 6 1020.9 - 2.6 - Partly cloudy 10 - - - -
26/05:30am 12.7 WNW 4 6 1020.7 - 2.6 - Partly cloudy - - - - -
26/05:24am 12.7 NW 5 7 1020.7 - 2.6 - Partly cloudy - - - - -
26/05:00am 12.3 NW 3 5 1020.4 - 2.6 - Partly cloudy 10 - - - -
26/04:30am 12.6 WNW 3 5 1020.1 - 2.6 - Partly cloudy 10 - - - -
26/04:10am 13.1 W 3 4 1020.0 - 2.6 - Partly cloudy 10 - - - -
26/04:00am 13.1 W 3 4 1020.0 - 2.6 - Partly cloudy 10 - - - -
26/03:47am 13.1 W 3 4 1020.0 - 2.6 - Partly cloudy 10 - - - -
26/03:44am 13.1 W 3 4 1020.0 - 2.6 - Partly cloudy 10 - - - -
26/03:30am 13.1 WSW 2 4 1019.9 - 2.6 - Partly cloudy - - - - -
26/03:00am 13.1 SW 5 7 1019.7 - 2.6 Recent precip. Cloudy - - - - -
26/02:30am 13.0 WNW 5 7 1019.7 - 2.6 - Partly cloudy - - - - -
26/02:00am 13.2 WNW 4 7 1019.6 - 2.0 - Partly cloudy - - - - -
26/01:47am 13.1 WSW 4 5 1019.6 - 1.4 - Partly cloudy - - - - -
26/01:30am 13.5 WNW 5 9 1019.5 - 0.6 - Cloudy 4 - - - -
26/01:26am 13.6 NW 6 9 1019.5 - 0.2 - Partly cloudy 5 - - - -
26/01:00am 13.8 NNW 9 11 1019.1 - 0.0 - Partly cloudy 10 - - - -
26/12:30am 13.6 NNW 9 12 1019.2 - 0.0 - Partly cloudy 7 - - - -
26/12:00am 14.1 NNW 10 14 1019.2 - 0.0 - Mostly cloudy 10 - - - -
 
Date/Time
EST
Temp
°C
Wind Pressure Rain since
9am
mm
Weather Cloud Vis
km
Sea
Height
m
Swell
Dir  Spd
kts
Gust
kts
hPa Trend Height
m
Period
s
Dir
25/11:30pm 14.1 NNW 8 11 1019.2 - 0.0 - Cloudy 10 - - - -
25/11:00pm 14.0 N 10 15 1019.0 - 0.0 - Partly cloudy 10 - - - -
25/10:30pm 14.1 NNW 11 16 1019.2 - 0.0 - Partly cloudy 10 - - - -
25/10:00pm 14.1 NNW 11 17 1019.1 - 0.0 - - 10 - - - -
25/09:30pm 14.0 N 10 14 1018.9 - 0.0 - - 10 - - - -
25/09:00pm 14.0 N 11 13 1018.8 - 0.0 - Mostly clear 10 - - - -
25/08:30pm 14.3 N 8 11 1018.8 - 0.0 - Partly cloudy 10 - - - -
25/08:00pm 14.7 N 12 16 1018.7 - 0.0 - Partly cloudy 10 - - - -
25/07:30pm 15.6 NNW 11 16 1018.8 - 0.0 - Partly cloudy 10 - - - -
25/07:00pm 15.7 N 11 16 1018.7 - 0.0 - Partly cloudy 10 - - - -
25/06:30pm 15.6 N 9 12 1018.7 - 0.0 - Cloudy 10 - - - -

Other Formats:

Comma delimited format used in spreadsheet applications
http://www.bom.gov.au/fwo/IDV60701/IDV60701.94870.axf

JavaScript Object Notation format (JSON) in row-major order
http://www.bom.gov.au/fwo/IDV60701/IDV60701.94870.json